ASY628 EGUN-ESPA
Flight info
| Callsign | ASY628 |
|---|---|
| Flight time | 2h 39m |
| Altitude | 31000 |
| Route | N0424F310 DCT TUZLA P144 LARGA DCT TINAC DCT KARLI DCT XAROS DCT OLGUV DCT LUKIG/N0432F270 T400 RISEM DCT |
| Aircraft | C17/H-SDFGHIJ5KM1RTUWXYZ/LB101 |
Departure
| Time | 2026-05-07 14:17 |
|---|---|
| Airport | RAF Mildenhall (EGUN) |
Arrival
| Time | 2026-05-07 16:56 |
|---|---|
| Airport | Luleå Airport (ESPA) |
| Time | Latitude | Longitude | Altitude | Speed | Heading |
|---|---|---|---|---|---|
| 2026-05-07 14:00 | 52.36085 | 0.47045 | 23 ft | 0 kts | 114° |
| 2026-05-07 14:14 | 52.36090 | 0.47068 | 28 ft | 5 kts | 43° |
| 2026-05-07 14:14 | 52.36137 | 0.47060 | 28 ft | 7 kts | 2° |
| 2026-05-07 14:14 | 52.36179 | 0.47079 | 23 ft | 6 kts | 19° |
| 2026-05-07 14:15 | 52.36215 | 0.47096 | 28 ft | 5 kts | 19° |
| 2026-05-07 14:15 | 52.36240 | 0.47117 | 27 ft | 3 kts | 29° |
| 2026-05-07 14:15 | 52.36257 | 0.47138 | 29 ft | 6 kts | 41° |
| 2026-05-07 14:15 | 52.36324 | 0.47228 | 25 ft | 14 kts | 20° |
| 2026-05-07 14:16 | 52.36377 | 0.47329 | 22 ft | 13 kts | 91° |
| 2026-05-07 14:16 | 52.36314 | 0.47787 | 29 ft | 78 kts | 103° |
| 2026-05-07 14:16 | 52.36148 | 0.48955 | 30 ft | 129 kts | 103° |
| 2026-05-07 14:16 | 52.35910 | 0.50599 | 414 ft | 155 kts | 105° |
| 2026-05-07 14:17 | 52.35660 | 0.52284 | 1546 ft | 148 kts | 103° |
| 2026-05-07 14:17 | 52.35429 | 0.53886 | 2658 ft | 151 kts | 103° |
| 2026-05-07 14:17 | 52.35146 | 0.55827 | 3010 ft | 203 kts | 103° |
| 2026-05-07 14:17 | 52.34791 | 0.58278 | 3323 ft | 236 kts | 103° |
| 2026-05-07 14:18 | 52.34590 | 0.61024 | 3728 ft | 244 kts | 90° |
| 2026-05-07 14:18 | 52.34678 | 0.63791 | 4245 ft | 246 kts | 86° |
| 2026-05-07 14:18 | 52.34756 | 0.66636 | 4782 ft | 253 kts | 90° |
| 2026-05-07 14:18 | 52.34732 | 0.69521 | 5306 ft | 254 kts | 92° |
| 2026-05-07 14:19 | 52.34691 | 0.72419 | 5833 ft | 257 kts | 92° |
| 2026-05-07 14:19 | 52.34668 | 0.75374 | 6345 ft | 262 kts | 91° |
| 2026-05-07 14:19 | 52.34650 | 0.78367 | 6861 ft | 263 kts | 91° |
| 2026-05-07 14:19 | 52.34626 | 0.81369 | 7359 ft | 266 kts | 91° |
| 2026-05-07 14:20 | 52.34601 | 0.84429 | 7871 ft | 270 kts | 91° |
| 2026-05-07 14:20 | 52.34576 | 0.87474 | 8378 ft | 271 kts | 91° |
| 2026-05-07 14:20 | 52.34549 | 0.90571 | 8903 ft | 274 kts | 90° |
| 2026-05-07 14:20 | 52.34522 | 0.93712 | 9425 ft | 280 kts | 90° |
| 2026-05-07 14:21 | 52.34502 | 0.96889 | 9956 ft | 280 kts | 86° |
| 2026-05-07 14:21 | 52.34943 | 0.99965 | 10451 ft | 279 kts | 60° |
| 2026-05-07 14:21 | 52.36203 | 1.02367 | 10966 ft | 282 kts | 36° |
| 2026-05-07 14:21 | 52.37807 | 1.04260 | 11526 ft | 285 kts | 33° |
| 2026-05-07 14:22 | 52.39436 | 1.06118 | 12038 ft | 285 kts | 33° |
| 2026-05-07 14:22 | 52.41062 | 1.07989 | 12568 ft | 289 kts | 34° |
| 2026-05-07 14:22 | 52.42710 | 1.09907 | 13105 ft | 292 kts | 34° |
| 2026-05-07 14:22 | 52.44369 | 1.11847 | 13642 ft | 293 kts | 34° |
| 2026-05-07 14:23 | 52.46034 | 1.13790 | 14149 ft | 296 kts | 34° |
| 2026-05-07 14:23 | 52.47720 | 1.15757 | 14643 ft | 300 kts | 34° |
| 2026-05-07 14:23 | 52.49425 | 1.17751 | 15141 ft | 301 kts | 34° |
| 2026-05-07 14:23 | 52.51131 | 1.19747 | 15641 ft | 303 kts | 34° |
| 2026-05-07 14:24 | 52.52860 | 1.21771 | 16160 ft | 306 kts | 34° |
| 2026-05-07 14:24 | 52.54601 | 1.23813 | 16681 ft | 310 kts | 34° |
| 2026-05-07 14:24 | 52.56363 | 1.25880 | 17212 ft | 312 kts | 34° |
| 2026-05-07 14:24 | 52.58135 | 1.27963 | 17751 ft | 314 kts | 34° |
| 2026-05-07 14:25 | 52.59916 | 1.30056 | 18292 ft | 315 kts | 34° |
| 2026-05-07 14:25 | 52.61701 | 1.32156 | 18780 ft | 315 kts | 34° |
| 2026-05-07 14:25 | 52.63496 | 1.34274 | 19250 ft | 319 kts | 34° |
| 2026-05-07 14:25 | 52.65312 | 1.36415 | 19758 ft | 323 kts | 34° |
| 2026-05-07 14:26 | 52.67141 | 1.38575 | 20255 ft | 323 kts | 34° |
| 2026-05-07 14:26 | 52.68974 | 1.40741 | 20758 ft | 326 kts | 34° |
| 2026-05-07 14:26 | 52.70827 | 1.42934 | 21275 ft | 330 kts | 34° |
| 2026-05-07 14:26 | 52.72706 | 1.45160 | 21806 ft | 333 kts | 34° |
| 2026-05-07 14:27 | 52.74592 | 1.47397 | 22322 ft | 334 kts | 34° |
| 2026-05-07 14:27 | 52.76488 | 1.49647 | 22865 ft | 338 kts | 34° |
| 2026-05-07 14:27 | 52.78408 | 1.51928 | 23427 ft | 342 kts | 34° |
| 2026-05-07 14:27 | 52.80323 | 1.54208 | 23931 ft | 344 kts | 34° |
| 2026-05-07 14:28 | 52.82265 | 1.56522 | 24421 ft | 344 kts | 34° |
| 2026-05-07 14:28 | 52.84213 | 1.58844 | 24883 ft | 347 kts | 35° |
| 2026-05-07 14:28 | 52.86174 | 1.61185 | 25376 ft | 348 kts | 34° |
| 2026-05-07 14:28 | 52.88133 | 1.63526 | 25875 ft | 348 kts | 35° |
| 2026-05-07 14:29 | 52.90099 | 1.65879 | 26378 ft | 349 kts | 35° |
| 2026-05-07 14:29 | 52.92075 | 1.68246 | 26900 ft | 352 kts | 35° |
| 2026-05-07 14:29 | 52.94065 | 1.70632 | 27423 ft | 353 kts | 36° |
| 2026-05-07 14:29 | 52.96061 | 1.73029 | 27985 ft | 354 kts | 36° |
| 2026-05-07 14:30 | 52.98055 | 1.75427 | 28500 ft | 355 kts | 36° |
| 2026-05-07 14:30 | 53.00063 | 1.77843 | 29071 ft | 359 kts | 36° |
| 2026-05-07 14:30 | 53.02083 | 1.80276 | 29652 ft | 358 kts | 36° |
| 2026-05-07 14:30 | 53.04101 | 1.82710 | 30212 ft | 362 kts | 36° |
| 2026-05-07 14:31 | 53.06153 | 1.85190 | 30714 ft | 366 kts | 36° |
| 2026-05-07 14:31 | 53.08224 | 1.87694 | 31054 ft | 373 kts | 37° |
| 2026-05-07 14:31 | 53.10338 | 1.90253 | 31082 ft | 376 kts | 37° |
| 2026-05-07 14:32 | 53.14517 | 1.95308 | 31070 ft | 366 kts | 36° |
| 2026-05-07 14:32 | 53.18639 | 2.00321 | 31081 ft | 369 kts | 36° |
| 2026-05-07 14:33 | 53.22794 | 2.05385 | 31078 ft | 369 kts | 36° |
| 2026-05-07 14:33 | 53.26932 | 2.10442 | 31087 ft | 369 kts | 36° |
| 2026-05-07 14:34 | 53.31098 | 2.15544 | 31088 ft | 371 kts | 36° |
| 2026-05-07 14:34 | 53.35246 | 2.20639 | 31083 ft | 369 kts | 36° |
| 2026-05-07 14:35 | 53.39390 | 2.25739 | 31085 ft | 370 kts | 36° |
| 2026-05-07 14:35 | 53.43542 | 2.30864 | 31083 ft | 371 kts | 36° |
| 2026-05-07 14:36 | 53.47809 | 2.36141 | 31118 ft | 403 kts | 36° |
| 2026-05-07 14:36 | 53.50136 | 2.39023 | 31122 ft | 428 kts | 36° |
| 2026-05-07 14:36 | 53.52564 | 2.42033 | 31116 ft | 437 kts | 36° |
| 2026-05-07 14:37 | 53.57459 | 2.48125 | 31106 ft | 437 kts | 37° |
| 2026-05-07 14:37 | 53.64816 | 2.57310 | 31085 ft | 440 kts | 37° |
| 2026-05-07 14:38 | 53.69679 | 2.63407 | 31093 ft | 438 kts | 37° |
| 2026-05-07 14:38 | 53.74576 | 2.69563 | 31103 ft | 440 kts | 36° |
| 2026-05-07 14:39 | 53.79491 | 2.75759 | 31101 ft | 439 kts | 37° |
| 2026-05-07 14:39 | 53.84382 | 2.81945 | 31103 ft | 439 kts | 37° |
| 2026-05-07 14:40 | 53.89288 | 2.88167 | 31102 ft | 440 kts | 37° |
| 2026-05-07 14:40 | 53.94183 | 2.94395 | 31101 ft | 439 kts | 37° |
| 2026-05-07 14:41 | 53.99073 | 3.00636 | 31105 ft | 441 kts | 36° |
| 2026-05-07 14:41 | 54.03997 | 3.06937 | 31106 ft | 442 kts | 37° |
| 2026-05-07 14:42 | 54.08900 | 3.13232 | 31100 ft | 441 kts | 37° |
| 2026-05-07 14:42 | 54.13810 | 3.19554 | 31097 ft | 442 kts | 37° |
| 2026-05-07 14:43 | 54.18708 | 3.25880 | 31101 ft | 440 kts | 37° |
| 2026-05-07 14:43 | 54.23575 | 3.32187 | 31108 ft | 445 kts | 36° |
| 2026-05-07 14:44 | 54.28525 | 3.38619 | 31103 ft | 445 kts | 37° |
| 2026-05-07 14:44 | 54.33431 | 3.45021 | 31100 ft | 444 kts | 37° |
| 2026-05-07 14:45 | 54.38359 | 3.51462 | 31101 ft | 446 kts | 37° |
| 2026-05-07 14:45 | 54.43279 | 3.57917 | 31104 ft | 444 kts | 37° |
| 2026-05-07 14:46 | 54.48196 | 3.64385 | 31106 ft | 448 kts | 37° |
| 2026-05-07 14:46 | 54.53147 | 3.70922 | 31108 ft | 447 kts | 37° |
| 2026-05-07 14:47 | 54.58072 | 3.77444 | 31105 ft | 446 kts | 37° |
| 2026-05-07 14:47 | 54.63013 | 3.84005 | 31108 ft | 448 kts | 37° |
| 2026-05-07 14:48 | 54.67927 | 3.90552 | 31105 ft | 446 kts | 37° |
| 2026-05-07 14:48 | 54.72857 | 3.97142 | 31111 ft | 450 kts | 37° |
| 2026-05-07 14:49 | 54.77809 | 4.03780 | 31107 ft | 448 kts | 37° |
| 2026-05-07 14:49 | 54.82696 | 4.10353 | 31109 ft | 448 kts | 37° |
| 2026-05-07 14:50 | 54.87925 | 4.16173 | 31134 ft | 448 kts | 20° |
| 2026-05-07 14:50 | 54.93823 | 4.19759 | 31128 ft | 449 kts | 17° |
| 2026-05-07 14:51 | 54.99746 | 4.23178 | 31115 ft | 448 kts | 19° |
| 2026-05-07 14:51 | 55.05661 | 4.26740 | 31118 ft | 450 kts | 18° |
| 2026-05-07 14:52 | 55.11587 | 4.30233 | 31111 ft | 449 kts | 18° |
| 2026-05-07 14:52 | 55.17492 | 4.33777 | 31110 ft | 449 kts | 18° |
| 2026-05-07 14:53 | 55.23415 | 4.37312 | 31122 ft | 451 kts | 18° |
| 2026-05-07 14:53 | 55.29342 | 4.40879 | 31122 ft | 450 kts | 18° |
| 2026-05-07 14:54 | 55.35256 | 4.44438 | 31114 ft | 449 kts | 18° |
| 2026-05-07 14:54 | 55.41178 | 4.48020 | 31115 ft | 450 kts | 18° |
| 2026-05-07 14:55 | 55.47061 | 4.51586 | 31118 ft | 449 kts | 18° |
| 2026-05-07 14:55 | 55.52979 | 4.55185 | 31117 ft | 450 kts | 18° |
| 2026-05-07 14:56 | 55.58905 | 4.58801 | 31118 ft | 451 kts | 18° |
| 2026-05-07 14:56 | 55.64822 | 4.62424 | 31120 ft | 449 kts | 18° |
| 2026-05-07 14:57 | 55.70732 | 4.66054 | 31126 ft | 451 kts | 18° |
| 2026-05-07 14:57 | 55.75681 | 4.69102 | 31128 ft | 454 kts | 18° |
| 2026-05-07 14:58 | 55.81640 | 4.72783 | 31120 ft | 452 kts | 18° |
| 2026-05-07 14:58 | 55.87576 | 4.76462 | 31119 ft | 453 kts | 18° |
| 2026-05-07 14:59 | 55.93532 | 4.80166 | 31123 ft | 453 kts | 18° |
| 2026-05-07 14:59 | 55.99473 | 4.83872 | 31121 ft | 452 kts | 18° |
| 2026-05-07 15:00 | 56.05418 | 4.87592 | 31131 ft | 453 kts | 18° |
| 2026-05-07 15:00 | 56.11372 | 4.91332 | 31133 ft | 453 kts | 18° |
| 2026-05-07 15:01 | 56.17318 | 4.95077 | 31130 ft | 452 kts | 18° |
| 2026-05-07 15:01 | 56.23261 | 4.98834 | 31133 ft | 453 kts | 18° |
| 2026-05-07 15:02 | 56.29195 | 5.02676 | 31129 ft | 453 kts | 19° |
| 2026-05-07 15:02 | 56.35057 | 5.06644 | 31126 ft | 452 kts | 19° |
| 2026-05-07 15:03 | 56.40973 | 5.10558 | 31129 ft | 454 kts | 19° |
| 2026-05-07 15:03 | 56.46885 | 5.14541 | 31128 ft | 452 kts | 19° |
| 2026-05-07 15:04 | 56.52791 | 5.18499 | 31133 ft | 454 kts | 18° |
| 2026-05-07 15:04 | 56.58719 | 5.22506 | 31131 ft | 454 kts | 18° |
| 2026-05-07 15:05 | 56.64626 | 5.26501 | 31129 ft | 453 kts | 18° |
| 2026-05-07 15:05 | 56.70549 | 5.30525 | 31132 ft | 455 kts | 19° |
| 2026-05-07 15:06 | 56.76472 | 5.34562 | 31125 ft | 454 kts | 18° |
| 2026-05-07 15:06 | 56.82399 | 5.38613 | 31127 ft | 456 kts | 18° |
| 2026-05-07 15:07 | 56.88332 | 5.42685 | 31126 ft | 455 kts | 18° |
| 2026-05-07 15:07 | 56.94259 | 5.46764 | 31125 ft | 455 kts | 18° |
| 2026-05-07 15:08 | 57.00156 | 5.50838 | 31135 ft | 456 kts | 18° |
| 2026-05-07 15:08 | 57.06083 | 5.55029 | 31123 ft | 456 kts | 18° |
| 2026-05-07 15:09 | 57.12010 | 5.59242 | 31128 ft | 457 kts | 18° |
| 2026-05-07 15:09 | 57.17937 | 5.63459 | 31130 ft | 457 kts | 18° |
| 2026-05-07 15:10 | 57.23859 | 5.67696 | 31125 ft | 456 kts | 18° |
| 2026-05-07 15:10 | 57.29791 | 5.71946 | 31124 ft | 458 kts | 18° |
| 2026-05-07 15:11 | 57.35732 | 5.76225 | 31126 ft | 457 kts | 18° |
| 2026-05-07 15:11 | 57.41652 | 5.80499 | 31117 ft | 457 kts | 18° |
| 2026-05-07 15:12 | 57.47583 | 5.84797 | 31116 ft | 458 kts | 18° |
| 2026-05-07 15:12 | 57.53491 | 5.89095 | 31119 ft | 458 kts | 18° |
| 2026-05-07 15:13 | 57.59419 | 5.93419 | 31125 ft | 458 kts | 18° |
| 2026-05-07 15:13 | 57.65360 | 5.97771 | 31125 ft | 459 kts | 18° |
| 2026-05-07 15:14 | 57.71296 | 6.02133 | 31120 ft | 458 kts | 18° |
| 2026-05-07 15:14 | 57.77226 | 6.06507 | 31116 ft | 458 kts | 18° |
| 2026-05-07 15:15 | 57.83145 | 6.10889 | 31125 ft | 456 kts | 17° |
| 2026-05-07 15:15 | 57.89056 | 6.15277 | 31126 ft | 458 kts | 18° |
| 2026-05-07 15:16 | 57.94938 | 6.19664 | 31126 ft | 457 kts | 18° |
| 2026-05-07 15:16 | 58.00845 | 6.24082 | 31124 ft | 457 kts | 18° |
| 2026-05-07 15:17 | 58.06769 | 6.28528 | 31126 ft | 459 kts | 17° |
| 2026-05-07 15:17 | 58.12677 | 6.32981 | 31123 ft | 457 kts | 17° |
| 2026-05-07 15:18 | 58.18590 | 6.37450 | 31119 ft | 458 kts | 17° |
| 2026-05-07 15:18 | 58.24510 | 6.41944 | 31122 ft | 458 kts | 17° |
| 2026-05-07 15:19 | 58.30415 | 6.46441 | 31120 ft | 457 kts | 17° |
| 2026-05-07 15:19 | 58.36341 | 6.50969 | 31118 ft | 460 kts | 17° |
| 2026-05-07 15:20 | 58.42266 | 6.55516 | 31103 ft | 459 kts | 17° |
| 2026-05-07 15:20 | 58.48200 | 6.60083 | 31116 ft | 459 kts | 17° |
| 2026-05-07 15:21 | 58.54120 | 6.64660 | 31104 ft | 459 kts | 17° |
| 2026-05-07 15:21 | 58.60042 | 6.69250 | 31107 ft | 459 kts | 17° |
| 2026-05-07 15:22 | 58.65970 | 6.73865 | 31098 ft | 460 kts | 17° |
| 2026-05-07 15:22 | 58.71889 | 6.78492 | 31100 ft | 458 kts | 17° |
| 2026-05-07 15:23 | 58.77805 | 6.83126 | 31087 ft | 460 kts | 17° |
| 2026-05-07 15:23 | 58.83695 | 6.87767 | 31094 ft | 459 kts | 17° |
| 2026-05-07 15:24 | 58.89613 | 6.92437 | 31082 ft | 460 kts | 17° |
| 2026-05-07 15:24 | 58.95556 | 6.97151 | 31089 ft | 461 kts | 17° |
| 2026-05-07 15:25 | 59.01472 | 7.01862 | 31085 ft | 459 kts | 17° |
| 2026-05-07 15:25 | 59.07382 | 7.06580 | 31100 ft | 459 kts | 17° |
| 2026-05-07 15:26 | 59.13279 | 7.11310 | 31120 ft | 459 kts | 16° |
| 2026-05-07 15:26 | 59.19199 | 7.16072 | 31110 ft | 460 kts | 16° |
| 2026-05-07 15:27 | 59.25109 | 7.20851 | 31109 ft | 460 kts | 16° |
| 2026-05-07 15:27 | 59.31021 | 7.25641 | 31114 ft | 461 kts | 16° |
| 2026-05-07 15:28 | 59.36936 | 7.30458 | 31106 ft | 459 kts | 16° |
| 2026-05-07 15:28 | 59.42853 | 7.35291 | 31113 ft | 461 kts | 15° |
| 2026-05-07 15:29 | 59.48770 | 7.40146 | 31114 ft | 460 kts | 15° |
| 2026-05-07 15:29 | 59.54642 | 7.44977 | 31122 ft | 461 kts | 15° |
| 2026-05-07 15:30 | 59.60554 | 7.49866 | 31120 ft | 460 kts | 15° |
| 2026-05-07 15:30 | 59.66448 | 7.54753 | 31125 ft | 461 kts | 15° |
| 2026-05-07 15:31 | 59.72374 | 7.59689 | 31134 ft | 461 kts | 15° |
| 2026-05-07 15:31 | 59.78282 | 7.64629 | 31128 ft | 460 kts | 15° |
| 2026-05-07 15:32 | 59.84190 | 7.69584 | 31137 ft | 462 kts | 15° |
| 2026-05-07 15:32 | 59.90098 | 7.74566 | 31135 ft | 460 kts | 15° |
| 2026-05-07 15:33 | 59.95998 | 7.79550 | 31145 ft | 463 kts | 15° |
| 2026-05-07 15:33 | 60.01913 | 7.84578 | 31146 ft | 460 kts | 15° |
| 2026-05-07 15:34 | 60.07808 | 7.89597 | 31149 ft | 461 kts | 15° |
| 2026-05-07 15:34 | 60.13683 | 7.94628 | 31152 ft | 462 kts | 15° |
| 2026-05-07 15:35 | 60.19580 | 7.99694 | 31150 ft | 460 kts | 15° |
| 2026-05-07 15:35 | 60.25484 | 8.04780 | 31142 ft | 463 kts | 14° |
| 2026-05-07 15:36 | 60.28364 | 8.07783 | 31123 ft | 471 kts | 26° |
| 2026-05-07 15:36 | 60.30958 | 8.11892 | 31141 ft | 476 kts | 33° |
| 2026-05-07 15:36 | 60.35980 | 8.20741 | 31139 ft | 482 kts | 34° |
| 2026-05-07 15:37 | 60.41031 | 8.29543 | 31125 ft | 478 kts | 33° |
| 2026-05-07 15:37 | 60.46064 | 8.38385 | 31121 ft | 480 kts | 33° |
| 2026-05-07 15:38 | 60.51112 | 8.47291 | 31107 ft | 482 kts | 33° |
| 2026-05-07 15:38 | 60.56156 | 8.56224 | 31109 ft | 480 kts | 33° |
| 2026-05-07 15:39 | 60.61193 | 8.65182 | 31107 ft | 482 kts | 33° |
| 2026-05-07 15:39 | 60.66243 | 8.74207 | 31093 ft | 482 kts | 33° |
| 2026-05-07 15:40 | 60.71274 | 8.83235 | 31082 ft | 481 kts | 33° |
| 2026-05-07 15:40 | 60.76274 | 8.92241 | 31088 ft | 484 kts | 33° |
| 2026-05-07 15:41 | 60.81273 | 9.01302 | 31078 ft | 477 kts | 33° |
| 2026-05-07 15:41 | 60.86263 | 9.10351 | 31077 ft | 482 kts | 33° |
| 2026-05-07 15:42 | 60.91257 | 9.19490 | 31084 ft | 479 kts | 33° |
| 2026-05-07 15:42 | 60.96235 | 9.28605 | 31082 ft | 480 kts | 33° |
| 2026-05-07 15:43 | 61.01226 | 9.37801 | 31152 ft | 481 kts | 34° |
| 2026-05-07 15:43 | 61.06196 | 9.47001 | 31087 ft | 478 kts | 34° |
| 2026-05-07 15:44 | 61.11148 | 9.56190 | 31084 ft | 481 kts | 34° |
| 2026-05-07 15:44 | 61.16115 | 9.65470 | 31092 ft | 480 kts | 34° |
| 2026-05-07 15:45 | 61.21057 | 9.74729 | 31087 ft | 479 kts | 34° |
| 2026-05-07 15:45 | 61.25180 | 9.82487 | 31097 ft | 480 kts | 34° |
| 2026-05-07 15:46 | 61.32557 | 9.96446 | 31081 ft | 478 kts | 34° |
| 2026-05-07 15:47 | 61.38283 | 10.07342 | 31087 ft | 480 kts | 34° |
| 2026-05-07 15:47 | 61.42406 | 10.15227 | 31083 ft | 479 kts | 34° |
| 2026-05-07 15:48 | 61.47300 | 10.24616 | 31081 ft | 479 kts | 34° |
| 2026-05-07 15:48 | 61.52187 | 10.34043 | 31090 ft | 479 kts | 35° |
| 2026-05-07 15:49 | 61.57106 | 10.43571 | 31091 ft | 477 kts | 35° |
| 2026-05-07 15:49 | 61.61983 | 10.53053 | 31087 ft | 479 kts | 35° |
| 2026-05-07 15:50 | 61.66866 | 10.62602 | 31083 ft | 478 kts | 35° |
| 2026-05-07 15:50 | 61.71702 | 10.72092 | 31085 ft | 478 kts | 35° |
| 2026-05-07 15:51 | 61.76562 | 10.81679 | 31069 ft | 477 kts | 35° |
| 2026-05-07 15:51 | 61.81401 | 10.91260 | 31079 ft | 479 kts | 35° |
| 2026-05-07 15:52 | 61.86235 | 11.00889 | 31082 ft | 475 kts | 35° |
| 2026-05-07 15:52 | 61.91055 | 11.10514 | 31084 ft | 476 kts | 35° |
| 2026-05-07 15:53 | 61.95877 | 11.20203 | 31088 ft | 477 kts | 36° |
| 2026-05-07 15:53 | 62.00700 | 11.29930 | 31089 ft | 477 kts | 36° |
| 2026-05-07 15:54 | 62.05502 | 11.39664 | 31084 ft | 476 kts | 36° |
| 2026-05-07 15:54 | 62.10277 | 11.49381 | 31091 ft | 479 kts | 36° |
| 2026-05-07 15:55 | 62.15087 | 11.59228 | 31089 ft | 477 kts | 36° |
| 2026-05-07 15:55 | 62.19875 | 11.69057 | 31091 ft | 478 kts | 36° |
| 2026-05-07 15:56 | 62.24646 | 11.78917 | 31100 ft | 474 kts | 36° |
| 2026-05-07 15:56 | 62.29405 | 11.88772 | 31095 ft | 477 kts | 36° |
| 2026-05-07 15:57 | 62.34169 | 11.98709 | 31103 ft | 476 kts | 35° |
| 2026-05-07 15:57 | 62.38908 | 12.08628 | 31103 ft | 474 kts | 35° |
| 2026-05-07 15:58 | 62.43551 | 12.18812 | 31084 ft | 485 kts | 45° |
| 2026-05-07 15:58 | 62.47277 | 12.31154 | 31113 ft | 492 kts | 51° |
| 2026-05-07 15:59 | 62.50895 | 12.43710 | 31108 ft | 492 kts | 50° |
| 2026-05-07 15:59 | 62.54534 | 12.56137 | 31106 ft | 491 kts | 51° |
| 2026-05-07 16:00 | 62.58149 | 12.68738 | 31106 ft | 493 kts | 50° |
| 2026-05-07 16:00 | 62.61782 | 12.81357 | 31103 ft | 492 kts | 50° |
| 2026-05-07 16:01 | 62.65388 | 12.94017 | 31102 ft | 493 kts | 50° |
| 2026-05-07 16:01 | 62.68996 | 13.06717 | 31105 ft | 493 kts | 51° |
| 2026-05-07 16:02 | 62.72586 | 13.19450 | 31103 ft | 492 kts | 51° |
| 2026-05-07 16:02 | 62.76169 | 13.32205 | 31104 ft | 494 kts | 51° |
| 2026-05-07 16:03 | 62.79741 | 13.45023 | 31157 ft | 493 kts | 51° |
| 2026-05-07 16:03 | 62.83296 | 13.57835 | 31103 ft | 490 kts | 52° |
| 2026-05-07 16:04 | 62.86816 | 13.70592 | 31100 ft | 491 kts | 52° |
| 2026-05-07 16:04 | 62.90346 | 13.83462 | 31105 ft | 491 kts | 52° |
| 2026-05-07 16:05 | 62.93845 | 13.96299 | 31099 ft | 490 kts | 52° |
| 2026-05-07 16:05 | 62.97328 | 14.09129 | 31094 ft | 493 kts | 52° |
| 2026-05-07 16:06 | 63.00815 | 14.22082 | 31092 ft | 490 kts | 52° |
| 2026-05-07 16:06 | 63.04289 | 14.35022 | 31087 ft | 489 kts | 53° |
| 2026-05-07 16:07 | 63.07710 | 14.47877 | 31075 ft | 486 kts | 53° |
| 2026-05-07 16:07 | 63.11147 | 14.60827 | 31078 ft | 489 kts | 53° |
| 2026-05-07 16:08 | 63.14559 | 14.73802 | 31077 ft | 487 kts | 53° |
| 2026-05-07 16:08 | 63.17968 | 14.86797 | 31082 ft | 489 kts | 54° |
| 2026-05-07 16:09 | 63.21360 | 14.99843 | 31088 ft | 488 kts | 54° |
| 2026-05-07 16:09 | 63.24717 | 15.12801 | 31144 ft | 488 kts | 54° |
| 2026-05-07 16:10 | 63.28077 | 15.25863 | 31103 ft | 484 kts | 55° |
| 2026-05-07 16:10 | 63.31413 | 15.38891 | 31106 ft | 486 kts | 55° |
| 2026-05-07 16:11 | 63.34745 | 15.52001 | 31111 ft | 485 kts | 56° |
| 2026-05-07 16:11 | 63.38058 | 15.65102 | 31105 ft | 486 kts | 56° |
| 2026-05-07 16:12 | 63.41368 | 15.78271 | 31108 ft | 486 kts | 56° |
| 2026-05-07 16:12 | 63.44659 | 15.91449 | 31104 ft | 485 kts | 56° |
| 2026-05-07 16:13 | 63.47942 | 16.04659 | 31092 ft | 486 kts | 57° |
| 2026-05-07 16:13 | 63.51187 | 16.17821 | 31090 ft | 481 kts | 57° |
| 2026-05-07 16:14 | 63.54430 | 16.31016 | 31094 ft | 485 kts | 57° |
| 2026-05-07 16:14 | 63.57655 | 16.44262 | 31087 ft | 483 kts | 57° |
| 2026-05-07 16:15 | 63.60876 | 16.57528 | 31086 ft | 485 kts | 57° |
| 2026-05-07 16:15 | 63.64084 | 16.70858 | 31081 ft | 483 kts | 57° |
| 2026-05-07 16:16 | 63.67275 | 16.84173 | 31082 ft | 484 kts | 58° |
| 2026-05-07 16:16 | 63.70459 | 16.97552 | 31080 ft | 484 kts | 58° |
| 2026-05-07 16:17 | 63.73629 | 17.10950 | 31077 ft | 483 kts | 58° |
| 2026-05-07 16:17 | 63.76785 | 17.24373 | 31081 ft | 485 kts | 58° |
| 2026-05-07 16:18 | 63.79931 | 17.37839 | 31069 ft | 484 kts | 58° |
| 2026-05-07 16:18 | 63.83058 | 17.51309 | 31079 ft | 483 kts | 58° |
| 2026-05-07 16:19 | 63.86178 | 17.64821 | 31076 ft | 485 kts | 59° |
| 2026-05-07 16:19 | 63.89288 | 17.78389 | 31097 ft | 484 kts | 59° |
| 2026-05-07 16:20 | 63.92366 | 17.91897 | 31072 ft | 479 kts | 59° |
| 2026-05-07 16:20 | 63.95426 | 18.05404 | 31074 ft | 482 kts | 59° |
| 2026-05-07 16:21 | 63.98581 | 18.18727 | 31075 ft | 477 kts | 51° |
| 2026-05-07 16:21 | 64.02525 | 18.30861 | 31073 ft | 477 kts | 48° |
| 2026-05-07 16:22 | 64.06552 | 18.42911 | 31066 ft | 477 kts | 50° |
| 2026-05-07 16:22 | 64.10516 | 18.55093 | 31059 ft | 478 kts | 49° |
| 2026-05-07 16:23 | 64.14540 | 18.67181 | 31058 ft | 473 kts | 45° |
| 2026-05-07 16:23 | 64.19218 | 18.77654 | 31068 ft | 472 kts | 39° |
| 2026-05-07 16:24 | 64.24072 | 18.87904 | 30635 ft | 475 kts | 40° |
| 2026-05-07 16:24 | 64.26443 | 18.93105 | 30270 ft | 465 kts | 40° |
| 2026-05-07 16:24 | 64.28765 | 18.98177 | 29868 ft | 456 kts | 39° |
| 2026-05-07 16:24 | 64.31074 | 19.03140 | 29400 ft | 452 kts | 39° |
| 2026-05-07 16:25 | 64.33367 | 19.08085 | 28738 ft | 456 kts | 39° |
| 2026-05-07 16:25 | 64.35729 | 19.13234 | 27912 ft | 471 kts | 40° |
| 2026-05-07 16:25 | 64.38098 | 19.18440 | 27144 ft | 470 kts | 40° |
| 2026-05-07 16:25 | 64.40453 | 19.23607 | 26370 ft | 462 kts | 40° |
| 2026-05-07 16:26 | 64.42764 | 19.28669 | 25581 ft | 453 kts | 40° |
| 2026-05-07 16:26 | 64.45031 | 19.33653 | 24810 ft | 444 kts | 40° |
| 2026-05-07 16:26 | 64.47248 | 19.38552 | 24076 ft | 436 kts | 40° |
| 2026-05-07 16:26 | 64.48685 | 19.41733 | 23593 ft | 430 kts | 40° |
| 2026-05-07 16:27 | 64.51547 | 19.48070 | 22416 ft | 420 kts | 41° |
| 2026-05-07 16:27 | 64.53645 | 19.52725 | 21554 ft | 414 kts | 41° |
| 2026-05-07 16:27 | 64.55706 | 19.57323 | 20743 ft | 409 kts | 41° |
| 2026-05-07 16:27 | 64.57742 | 19.61887 | 19931 ft | 405 kts | 41° |
| 2026-05-07 16:28 | 64.59774 | 19.66434 | 19128 ft | 403 kts | 41° |
| 2026-05-07 16:28 | 64.61791 | 19.70946 | 18390 ft | 400 kts | 42° |
| 2026-05-07 16:28 | 64.63779 | 19.75409 | 17549 ft | 394 kts | 43° |
| 2026-05-07 16:28 | 64.65713 | 19.79765 | 16718 ft | 388 kts | 43° |
| 2026-05-07 16:29 | 64.67638 | 19.84109 | 15891 ft | 382 kts | 42° |
| 2026-05-07 16:29 | 64.69531 | 19.88387 | 15101 ft | 377 kts | 42° |
| 2026-05-07 16:29 | 64.71407 | 19.92636 | 14321 ft | 373 kts | 42° |
| 2026-05-07 16:29 | 64.73258 | 19.96835 | 13529 ft | 369 kts | 42° |
| 2026-05-07 16:30 | 64.75091 | 20.01002 | 12683 ft | 366 kts | 42° |
| 2026-05-07 16:30 | 64.76908 | 20.05142 | 11882 ft | 362 kts | 42° |
| 2026-05-07 16:30 | 64.78704 | 20.09244 | 10948 ft | 361 kts | 42° |
| 2026-05-07 16:30 | 64.80504 | 20.13357 | 9935 ft | 361 kts | 42° |
| 2026-05-07 16:31 | 64.82299 | 20.17470 | 8848 ft | 361 kts | 42° |
| 2026-05-07 16:31 | 64.84092 | 20.21588 | 7792 ft | 360 kts | 42° |
| 2026-05-07 16:31 | 64.85878 | 20.25697 | 6749 ft | 359 kts | 42° |
| 2026-05-07 16:31 | 64.87658 | 20.29800 | 5715 ft | 357 kts | 42° |
| 2026-05-07 16:32 | 64.89335 | 20.34083 | 4657 ft | 355 kts | 49° |
| 2026-05-07 16:32 | 64.90937 | 20.38479 | 3604 ft | 352 kts | 46° |
| 2026-05-07 16:32 | 64.92560 | 20.42728 | 3025 ft | 337 kts | 47° |
| 2026-05-07 16:32 | 64.93555 | 20.45395 | 3032 ft | 316 kts | 47° |
| 2026-05-07 16:33 | 64.94916 | 20.49162 | 3029 ft | 289 kts | 48° |
| 2026-05-07 16:33 | 64.96169 | 20.52628 | 2981 ft | 266 kts | 47° |
| 2026-05-07 16:33 | 64.97349 | 20.55842 | 2987 ft | 256 kts | 47° |
| 2026-05-07 16:33 | 64.98529 | 20.59063 | 2997 ft | 261 kts | 47° |
| 2026-05-07 16:34 | 64.99710 | 20.62310 | 2999 ft | 259 kts | 47° |
| 2026-05-07 16:34 | 65.00884 | 20.65539 | 2996 ft | 259 kts | 47° |
| 2026-05-07 16:34 | 65.02063 | 20.68788 | 2996 ft | 261 kts | 47° |
| 2026-05-07 16:34 | 65.03241 | 20.72037 | 3001 ft | 259 kts | 47° |
| 2026-05-07 16:35 | 65.04414 | 20.75281 | 3002 ft | 260 kts | 47° |
| 2026-05-07 16:35 | 65.05594 | 20.78545 | 3006 ft | 260 kts | 47° |
| 2026-05-07 16:35 | 65.06728 | 20.81692 | 2982 ft | 242 kts | 47° |
| 2026-05-07 16:35 | 65.07801 | 20.84666 | 2993 ft | 237 kts | 47° |
| 2026-05-07 16:36 | 65.08861 | 20.87610 | 2998 ft | 241 kts | 47° |
| 2026-05-07 16:36 | 65.09955 | 20.90658 | 2988 ft | 238 kts | 47° |
| 2026-05-07 16:36 | 65.11018 | 20.93613 | 2998 ft | 239 kts | 47° |
| 2026-05-07 16:36 | 65.12096 | 20.96623 | 3009 ft | 239 kts | 48° |
| 2026-05-07 16:37 | 65.13171 | 20.99631 | 3007 ft | 238 kts | 47° |
| 2026-05-07 16:37 | 65.14250 | 21.02645 | 3007 ft | 240 kts | 47° |
| 2026-05-07 16:37 | 65.15326 | 21.05660 | 3009 ft | 239 kts | 47° |
| 2026-05-07 16:37 | 65.16403 | 21.08680 | 2997 ft | 238 kts | 48° |
| 2026-05-07 16:38 | 65.17473 | 21.11687 | 2994 ft | 239 kts | 47° |
| 2026-05-07 16:38 | 65.18554 | 21.14728 | 3003 ft | 240 kts | 47° |
| 2026-05-07 16:38 | 65.19626 | 21.17746 | 2996 ft | 238 kts | 47° |
| 2026-05-07 16:38 | 65.20699 | 21.20777 | 2996 ft | 240 kts | 47° |
| 2026-05-07 16:39 | 65.21776 | 21.23817 | 3001 ft | 240 kts | 46° |
| 2026-05-07 16:39 | 65.22942 | 21.26616 | 2992 ft | 238 kts | 46° |
| 2026-05-07 16:39 | 65.23986 | 21.29709 | 2999 ft | 240 kts | 50° |
| 2026-05-07 16:39 | 65.25039 | 21.32814 | 3007 ft | 241 kts | 47° |
| 2026-05-07 16:40 | 65.26144 | 21.35790 | 2998 ft | 238 kts | 46° |
| 2026-05-07 16:40 | 65.27242 | 21.38759 | 2999 ft | 239 kts | 46° |
| 2026-05-07 16:40 | 65.28341 | 21.41768 | 3002 ft | 241 kts | 47° |
| 2026-05-07 16:40 | 65.29432 | 21.44785 | 2995 ft | 238 kts | 47° |
| 2026-05-07 16:41 | 65.30517 | 21.47765 | 2992 ft | 238 kts | 46° |
| 2026-05-07 16:41 | 65.31612 | 21.50771 | 2995 ft | 239 kts | 47° |
| 2026-05-07 16:41 | 65.32649 | 21.53646 | 2978 ft | 222 kts | 47° |
| 2026-05-07 16:41 | 65.33637 | 21.56377 | 2981 ft | 218 kts | 46° |
| 2026-05-07 16:42 | 65.34613 | 21.59054 | 2994 ft | 221 kts | 46° |
| 2026-05-07 16:42 | 65.35563 | 21.61695 | 2996 ft | 219 kts | 47° |
| 2026-05-07 16:42 | 65.36573 | 21.64498 | 2992 ft | 220 kts | 47° |
| 2026-05-07 16:42 | 65.37565 | 21.67246 | 2997 ft | 221 kts | 47° |
| 2026-05-07 16:43 | 65.38567 | 21.70037 | 2999 ft | 220 kts | 47° |
| 2026-05-07 16:43 | 65.39495 | 21.72950 | 2996 ft | 220 kts | 51° |
| 2026-05-07 16:43 | 65.40590 | 21.75469 | 3009 ft | 218 kts | 33° |
| 2026-05-07 16:43 | 65.41855 | 21.77498 | 3011 ft | 220 kts | 31° |
| 2026-05-07 16:44 | 65.43123 | 21.79467 | 3003 ft | 211 kts | 31° |
| 2026-05-07 16:44 | 65.44314 | 21.81335 | 2985 ft | 202 kts | 31° |
| 2026-05-07 16:44 | 65.45516 | 21.83214 | 3000 ft | 209 kts | 31° |
| 2026-05-07 16:44 | 65.46733 | 21.85111 | 3009 ft | 207 kts | 31° |
| 2026-05-07 16:45 | 65.47941 | 21.86994 | 3006 ft | 207 kts | 31° |
| 2026-05-07 16:45 | 65.49157 | 21.88898 | 3011 ft | 209 kts | 31° |
| 2026-05-07 16:45 | 65.50370 | 21.90791 | 3010 ft | 207 kts | 31° |
| 2026-05-07 16:45 | 65.51582 | 21.92689 | 3010 ft | 208 kts | 31° |
| 2026-05-07 16:46 | 65.52803 | 21.94599 | 3016 ft | 209 kts | 31° |
| 2026-05-07 16:46 | 65.54017 | 21.96498 | 3009 ft | 207 kts | 31° |
| 2026-05-07 16:46 | 65.55222 | 21.98391 | 3007 ft | 208 kts | 31° |
| 2026-05-07 16:46 | 65.56440 | 22.00301 | 3012 ft | 209 kts | 31° |
| 2026-05-07 16:47 | 65.57658 | 22.02214 | 3014 ft | 208 kts | 31° |
| 2026-05-07 16:47 | 65.58865 | 22.04111 | 3009 ft | 207 kts | 31° |
| 2026-05-07 16:47 | 65.60076 | 22.06018 | 3008 ft | 208 kts | 31° |
| 2026-05-07 16:47 | 65.61291 | 22.07934 | 3012 ft | 208 kts | 31° |
| 2026-05-07 16:48 | 65.62502 | 22.09842 | 3014 ft | 208 kts | 31° |
| 2026-05-07 16:48 | 65.63780 | 22.11332 | 2940 ft | 204 kts | 0° |
| 2026-05-07 16:48 | 65.65139 | 22.10780 | 3038 ft | 198 kts | 342° |
| 2026-05-07 16:48 | 65.66500 | 22.09782 | 3023 ft | 205 kts | 341° |
| 2026-05-07 16:49 | 65.67842 | 22.08788 | 3005 ft | 199 kts | 341° |
| 2026-05-07 16:49 | 65.69175 | 22.07787 | 3002 ft | 201 kts | 341° |
| 2026-05-07 16:49 | 65.70517 | 22.06752 | 3008 ft | 202 kts | 336° |
| 2026-05-07 16:49 | 65.71616 | 22.04771 | 3012 ft | 196 kts | 311° |
| 2026-05-07 16:50 | 65.72517 | 22.02221 | 3012 ft | 201 kts | 309° |
| 2026-05-07 16:50 | 65.73418 | 21.99612 | 3008 ft | 201 kts | 309° |
| 2026-05-07 16:50 | 65.74310 | 21.97000 | 3014 ft | 200 kts | 309° |
| 2026-05-07 16:50 | 65.75129 | 21.94271 | 2977 ft | 200 kts | 288° |
| 2026-05-07 16:51 | 65.74975 | 21.91088 | 2827 ft | 202 kts | 230° |
| 2026-05-07 16:51 | 65.73798 | 21.89310 | 2953 ft | 203 kts | 203° |
| 2026-05-07 16:51 | 65.72433 | 21.88062 | 3017 ft | 213 kts | 202° |
| 2026-05-07 16:51 | 65.71064 | 21.86858 | 3005 ft | 206 kts | 201° |
| 2026-05-07 16:52 | 65.69711 | 21.85719 | 3001 ft | 207 kts | 201° |
| 2026-05-07 16:52 | 65.68351 | 21.84576 | 3004 ft | 207 kts | 201° |
| 2026-05-07 16:52 | 65.66994 | 21.83444 | 2997 ft | 205 kts | 201° |
| 2026-05-07 16:52 | 65.65618 | 21.82589 | 2949 ft | 209 kts | 176° |
| 2026-05-07 16:53 | 65.64371 | 21.84227 | 2887 ft | 209 kts | 127° |
| 2026-05-07 16:53 | 65.63576 | 21.87180 | 3035 ft | 216 kts | 122° |
| 2026-05-07 16:53 | 65.62793 | 21.90280 | 2998 ft | 206 kts | 121° |
| 2026-05-07 16:53 | 65.62071 | 21.93196 | 2774 ft | 206 kts | 121° |
| 2026-05-07 16:54 | 65.61334 | 21.96219 | 2276 ft | 210 kts | 121° |
| 2026-05-07 16:54 | 65.60594 | 21.99270 | 1784 ft | 209 kts | 122° |
| 2026-05-07 16:54 | 65.59567 | 22.01683 | 1160 ft | 210 kts | 149° |
| 2026-05-07 16:54 | 65.58440 | 22.03311 | 691 ft | 169 kts | 146° |
| 2026-05-07 16:55 | 65.57551 | 22.05018 | 514 ft | 150 kts | 139° |
| 2026-05-07 16:55 | 65.56837 | 22.06566 | 427 ft | 132 kts | 134° |
| 2026-05-07 16:55 | 65.56160 | 22.08163 | 284 ft | 145 kts | 135° |
| 2026-05-07 16:55 | 65.55401 | 22.09914 | 96 ft | 152 kts | 136° |
| 2026-05-07 16:56 | 65.54698 | 22.11488 | 45 ft | 121 kts | 136° |
| 2026-05-07 16:56 | 65.54218 | 22.12560 | 40 ft | 69 kts | 137° |
| 2026-05-07 16:56 | 65.53962 | 22.13136 | 34 ft | 5 kts | 136° |
| 2026-05-07 16:57 | 65.53961 | 22.13185 | 34 ft | 7 kts | 52° |
| 2026-05-07 16:57 | 65.54033 | 22.13002 | 34 ft | 27 kts | 310° |
| 2026-05-07 16:57 | 65.54166 | 22.12686 | 38 ft | 24 kts | 314° |
| 2026-05-07 16:57 | 65.54275 | 22.12437 | 42 ft | 19 kts | 321° |
| 2026-05-07 16:58 | 65.54371 | 22.12240 | 42 ft | 17 kts | 320° |
| 2026-05-07 16:58 | 65.54449 | 22.12059 | 41 ft | 14 kts | 318° |
| 2026-05-07 16:58 | 65.54516 | 22.11903 | 44 ft | 16 kts | 317° |
| 2026-05-07 16:58 | 65.54613 | 22.11678 | 48 ft | 21 kts | 315° |
| 2026-05-07 16:59 | 65.54712 | 22.11458 | 47 ft | 18 kts | 318° |
| 2026-05-07 16:59 | 65.54706 | 22.11240 | 44 ft | 13 kts | 229° |
| 2026-05-07 16:59 | 65.54682 | 22.11168 | 48 ft | 1 kts | 240° |
| 2026-05-07 16:59 | 65.54679 | 22.11152 | 43 ft | 1 kts | 248° |
| 2026-05-07 17:00 | 65.54677 | 22.11141 | 51 ft | 3 kts | 249° |
| 2026-05-07 17:00 | 65.54653 | 22.11032 | 47 ft | 10 kts | 252° |
| 2026-05-07 17:00 | 65.54656 | 22.10900 | 48 ft | 7 kts | 297° |
| 2026-05-07 17:00 | 65.54677 | 22.10822 | 44 ft | 5 kts | 294° |
| 2026-05-07 17:01 | 65.54680 | 22.10763 | 47 ft | 3 kts | 258° |
| 2026-05-07 17:01 | 65.54674 | 22.10721 | 29 ft | 3 kts | 251° |
| 2026-05-07 17:01 | 65.54667 | 22.10687 | 24 ft | 2 kts | 240° |
| 2026-05-07 17:01 | 65.54660 | 22.10657 | 60 ft | 2 kts | 238° |
| 2026-05-07 17:02 | 65.54651 | 22.10630 | 53 ft | 3 kts | 231° |
| 2026-05-07 17:02 | 65.54638 | 22.10592 | 51 ft | 3 kts | 234° |
| 2026-05-07 17:02 | 65.54624 | 22.10549 | 48 ft | 7 kts | 225° |
| 2026-05-07 17:02 | 65.54586 | 22.10460 | 48 ft | 7 kts | 226° |
| 2026-05-07 17:03 | 65.54581 | 22.10381 | 45 ft | 3 kts | 302° |
| 2026-05-07 17:03 | 65.54610 | 22.10356 | 51 ft | 9 kts | 23° |
| 2026-05-07 17:03 | 65.54630 | 22.10437 | 50 ft | 1 kts | 76° |
| 2026-05-07 17:03 | 65.54631 | 22.10445 | 49 ft | 0 kts | 76° |